createdAt,value
2017-09-06T00:01:33.933Z,97.40
2017-09-06T00:03:59.955Z,97.30
2017-09-06T00:06:26.049Z,97.40
2017-09-06T00:08:52.074Z,97.20
2017-09-06T00:11:18.122Z,97.20
2017-09-06T00:13:44.172Z,97.40
2017-09-06T00:16:10.205Z,97.40
2017-09-06T00:18:36.236Z,97.40
2017-09-06T00:21:02.277Z,97.50
2017-09-06T00:23:28.342Z,97.40
2017-09-06T00:25:54.399Z,97.50
2017-09-06T00:28:20.458Z,97.30
2017-09-06T00:30:46.491Z,97.50
2017-09-06T00:33:12.529Z,97.20
2017-09-06T00:35:38.554Z,97.20
2017-09-06T00:38:04.587Z,97.30
2017-09-06T00:40:30.633Z,97.40
2017-09-06T00:42:56.668Z,97.40
2017-09-06T00:45:22.743Z,97.30
2017-09-06T00:47:48.816Z,97.20
2017-09-06T00:50:14.837Z,97.20
2017-09-06T00:52:40.901Z,97.20
2017-09-06T00:55:06.960Z,97.20
2017-09-06T00:57:32.994Z,96.90
2017-09-06T00:59:59.040Z,97.00
2017-09-06T01:02:25.077Z,97.40
2017-09-06T01:04:51.116Z,97.00
2017-09-06T01:07:17.160Z,97.10
2017-09-06T01:09:43.212Z,97.10
2017-09-06T01:12:09.242Z,97.20
2017-09-06T01:14:35.296Z,97.20
2017-09-06T01:17:01.330Z,96.90
2017-09-06T01:19:27.373Z,96.80
2017-09-06T01:21:53.397Z,96.80
2017-09-06T01:24:19.421Z,96.80
2017-09-06T01:26:45.449Z,96.80
2017-09-06T01:29:11.505Z,96.90
2017-09-06T01:31:37.551Z,96.70
2017-09-06T01:34:03.598Z,96.90
2017-09-06T01:36:29.637Z,97.10
2017-09-06T01:38:55.749Z,97.10
2017-09-06T01:41:21.801Z,97.20
2017-09-06T01:43:47.852Z,97.20
2017-09-06T01:46:13.906Z,97.20
2017-09-06T01:48:39.953Z,97.40
2017-09-06T01:51:05.997Z,97.20
2017-09-06T01:53:32.056Z,97.20
2017-09-06T01:55:58.092Z,97.10
2017-09-06T01:58:24.132Z,97.10
2017-09-06T02:00:50.176Z,97.10
2017-09-06T02:03:16.234Z,97.20
2017-09-06T02:05:42.270Z,97.10
2017-09-06T02:08:08.303Z,97.10
2017-09-06T02:10:34.315Z,96.90
2017-09-06T02:13:00.366Z,96.80
2017-09-06T02:15:26.389Z,96.90
2017-09-06T02:17:52.413Z,97.00
2017-09-06T02:20:18.445Z,97.30
2017-09-06T02:22:44.502Z,97.40
2017-09-06T02:25:10.544Z,97.20
2017-09-06T02:27:36.584Z,97.20
2017-09-06T02:30:02.627Z,97.30
2017-09-06T02:32:28.665Z,97.30
2017-09-06T02:34:54.698Z,97.40
2017-09-06T02:37:20.726Z,97.40
2017-09-06T02:39:46.753Z,97.50
2017-09-06T02:42:12.769Z,97.60
2017-09-06T02:44:38.839Z,97.50
2017-09-06T02:47:04.830Z,97.40
2017-09-06T02:49:30.865Z,97.70
2017-09-06T02:51:56.888Z,97.80
2017-09-06T02:54:22.968Z,97.80
2017-09-06T02:56:49.021Z,98.00
2017-09-06T02:59:15.058Z,98.10
2017-09-06T03:01:41.080Z,98.40
2017-09-06T03:04:07.106Z,98.50
2017-09-06T03:06:33.158Z,98.60
2017-09-06T03:08:59.193Z,98.70
2017-09-06T03:11:25.233Z,98.80
2017-09-06T03:13:51.293Z,98.70
2017-09-06T03:16:17.352Z,98.50
2017-09-06T03:18:43.367Z,98.50
2017-09-06T03:21:09.406Z,98.70
2017-09-06T03:23:35.442Z,98.90
2017-09-06T03:26:01.480Z,98.90
2017-09-06T03:28:27.568Z,98.90
2017-09-06T03:30:53.587Z,99.10
2017-09-06T03:33:19.614Z,98.90
2017-09-06T03:35:45.641Z,98.70
2017-09-06T03:38:11.666Z,98.60
2017-09-06T03:40:37.685Z,98.60
2017-09-06T03:43:03.712Z,98.80
2017-09-06T03:45:29.748Z,98.70
2017-09-06T03:47:55.789Z,98.50
2017-09-06T03:50:21.817Z,98.70
2017-09-06T03:52:47.849Z,98.70
2017-09-06T03:55:13.901Z,98.90
2017-09-06T03:57:39.952Z,98.80
2017-09-06T04:00:06.016Z,98.90
2017-09-06T04:02:32.049Z,98.70
2017-09-06T04:04:58.145Z,98.50
2017-09-06T04:07:24.203Z,98.70
2017-09-06T04:09:50.213Z,99.00
2017-09-06T04:12:16.221Z,99.40
2017-09-06T04:14:42.290Z,99.60
2017-09-06T04:17:08.356Z,99.80
2017-09-06T04:19:34.389Z,99.80
2017-09-06T04:22:00.459Z,99.90
2017-09-06T04:24:26.493Z,99.90
2017-09-06T04:26:53.296Z,99.90
2017-09-06T04:29:19.325Z,99.90
2017-09-06T04:31:45.362Z,99.90
2017-09-06T04:34:11.417Z,99.90
2017-09-06T04:36:37.466Z,99.90
2017-09-06T04:39:03.532Z,99.90
2017-09-06T04:41:29.599Z,99.90
2017-09-06T04:43:55.672Z,99.90
2017-09-06T04:46:21.709Z,99.90
2017-09-06T04:48:47.739Z,99.90
2017-09-06T04:51:13.789Z,99.90
2017-09-06T04:53:39.857Z,99.90
2017-09-06T04:56:05.924Z,99.90
2017-09-06T04:58:31.962Z,99.90
2017-09-06T05:00:58.027Z,99.90
2017-09-06T05:03:24.070Z,99.90
2017-09-06T05:05:50.130Z,99.90
2017-09-06T05:08:16.184Z,99.90
2017-09-06T05:10:42.257Z,99.90
2017-09-06T05:13:08.301Z,99.90
2017-09-06T05:15:34.345Z,99.90
2017-09-06T05:18:00.389Z,99.90
2017-09-06T05:20:26.470Z,99.90
2017-09-06T05:22:52.531Z,99.90
2017-09-06T05:25:18.617Z,99.90
2017-09-06T05:27:44.686Z,99.90
2017-09-06T05:30:10.797Z,99.90
2017-09-06T05:32:36.859Z,99.90
2017-09-06T05:35:02.889Z,99.90
2017-09-06T05:37:28.925Z,99.90
2017-09-06T05:39:54.966Z,99.90
2017-09-06T05:42:21.022Z,99.90
2017-09-06T05:44:47.057Z,99.90
2017-09-06T05:47:13.105Z,99.90
2017-09-06T05:49:39.154Z,99.90
2017-09-06T05:52:06.333Z,99.90
2017-09-06T05:54:32.453Z,99.90
2017-09-06T05:56:58.488Z,99.90
2017-09-06T05:59:24.530Z,99.90
2017-09-06T06:01:50.569Z,99.90
2017-09-06T06:04:16.632Z,99.90
2017-09-06T06:06:42.681Z,99.90
2017-09-06T06:09:08.696Z,99.90
2017-09-06T06:11:34.766Z,99.90
2017-09-06T06:14:00.801Z,99.90
2017-09-06T06:16:26.858Z,99.90
2017-09-06T06:18:52.901Z,99.90
2017-09-06T06:21:18.934Z,99.90
2017-09-06T06:23:44.985Z,99.90
2017-09-06T06:26:11.102Z,99.90
2017-09-06T06:28:37.149Z,99.90
2017-09-06T06:31:03.173Z,99.90
2017-09-06T06:33:29.223Z,99.90
2017-09-06T06:35:55.262Z,99.90
2017-09-06T06:38:21.306Z,99.90
2017-09-06T06:40:47.336Z,99.90
2017-09-06T06:43:13.455Z,99.90
2017-09-06T06:45:39.477Z,99.90
2017-09-06T06:48:05.516Z,99.90
2017-09-06T06:50:31.582Z,99.90
2017-09-06T06:52:57.625Z,99.90
2017-09-06T06:55:23.676Z,99.90
2017-09-06T06:57:49.705Z,99.90
2017-09-06T07:00:15.759Z,99.90
2017-09-06T07:02:41.825Z,99.90
2017-09-06T07:05:07.866Z,99.90
2017-09-06T07:07:33.916Z,99.90
2017-09-06T07:09:59.960Z,99.90
2017-09-06T07:12:25.981Z,99.90
2017-09-06T07:14:52.013Z,99.90
2017-09-06T07:17:18.049Z,99.90
2017-09-06T07:19:44.112Z,99.90
2017-09-06T07:22:10.157Z,99.90
2017-09-06T07:24:36.193Z,99.90
2017-09-06T07:27:02.473Z,99.90
2017-09-06T07:29:28.501Z,99.90
2017-09-06T07:31:54.566Z,99.90
2017-09-06T07:34:20.601Z,99.80
2017-09-06T07:36:46.644Z,99.90
2017-09-06T07:39:12.690Z,99.90
2017-09-06T07:41:38.718Z,99.90
2017-09-06T07:44:04.729Z,99.90
2017-09-06T07:46:30.758Z,99.30
2017-09-06T07:48:56.794Z,98.90
2017-09-06T07:51:22.845Z,98.50
2017-09-06T07:53:48.897Z,98.90
2017-09-06T07:56:14.950Z,99.00
2017-09-06T07:58:40.997Z,99.70
2017-09-06T08:01:07.102Z,99.30
2017-09-06T08:03:33.156Z,98.90
2017-09-06T08:05:59.196Z,98.90
2017-09-06T08:08:25.228Z,98.60
2017-09-06T08:10:51.250Z,98.30
2017-09-06T08:13:17.332Z,97.70
2017-09-06T08:15:43.373Z,97.90
2017-09-06T08:18:09.413Z,96.80
2017-09-06T08:20:35.469Z,96.10
2017-09-06T08:23:01.510Z,95.40
2017-09-06T08:25:27.570Z,95.50
2017-09-06T08:27:53.593Z,95.20
2017-09-06T08:30:19.635Z,95.40
2017-09-06T08:32:45.663Z,96.20
2017-09-06T08:35:11.697Z,94.70
2017-09-06T08:37:37.738Z,95.20
2017-09-06T08:40:03.796Z,93.80
2017-09-06T08:42:29.825Z,94.40
2017-09-06T08:44:55.866Z,93.80
2017-09-06T08:47:21.893Z,94.40
2017-09-06T08:49:47.955Z,93.60
2017-09-06T08:52:13.989Z,93.90
2017-09-06T08:54:40.043Z,94.20
2017-09-06T08:57:06.106Z,94.30
2017-09-06T08:59:32.125Z,92.10
2017-09-06T09:01:58.217Z,90.40
2017-09-06T09:04:24.271Z,90.60
2017-09-06T09:06:50.349Z,90.40
2017-09-06T09:09:16.510Z,90.20
2017-09-06T09:11:42.548Z,90.50
2017-09-06T09:14:08.594Z,86.60
2017-09-06T09:16:34.668Z,86.50
2017-09-06T09:19:00.704Z,84.30
2017-09-06T09:21:26.739Z,85.90
2017-09-06T09:23:52.783Z,87.10
2017-09-06T09:26:18.862Z,84.40
2017-09-06T09:28:44.942Z,84.40
2017-09-06T09:31:10.990Z,85.60
2017-09-06T09:33:37.038Z,87.60
2017-09-06T09:36:03.061Z,87.20
2017-09-06T09:38:29.090Z,88.50
2017-09-06T09:40:55.196Z,87.10
2017-09-06T09:43:21.240Z,88.10
2017-09-06T09:45:47.265Z,86.70
2017-09-06T09:48:13.322Z,87.20
2017-09-06T09:50:39.348Z,89.20
2017-09-06T09:53:05.389Z,89.50
2017-09-06T09:55:31.426Z,90.50
2017-09-06T09:57:57.474Z,91.90
2017-09-06T10:00:23.490Z,91.80
2017-09-06T10:02:49.549Z,92.70
2017-09-06T10:05:15.590Z,94.20
2017-09-06T10:07:41.657Z,94.70
2017-09-06T10:10:07.690Z,94.40
2017-09-06T10:12:33.737Z,94.90
2017-09-06T10:14:59.769Z,95.30
2017-09-06T10:17:26.213Z,96.60
2017-09-06T10:19:52.254Z,95.90
2017-09-06T10:22:18.288Z,96.20
2017-09-06T10:24:44.365Z,96.70
2017-09-06T10:27:10.441Z,95.90
2017-09-06T10:29:36.514Z,96.30
2017-09-06T10:32:02.551Z,97.10
2017-09-06T10:34:28.622Z,96.70
2017-09-06T10:36:54.657Z,96.60
2017-09-06T10:39:20.690Z,96.70
2017-09-06T10:41:46.725Z,96.30
2017-09-06T10:44:12.760Z,96.60
2017-09-06T10:46:38.778Z,97.30
2017-09-06T10:49:04.817Z,99.70
2017-09-06T10:51:30.861Z,99.80
2017-09-06T10:53:56.909Z,99.90
2017-09-06T10:56:22.968Z,99.90
2017-09-06T10:58:48.999Z,99.90
2017-09-06T11:01:15.045Z,99.10
2017-09-06T11:03:41.089Z,99.20
2017-09-06T11:06:07.126Z,99.90
2017-09-06T11:08:33.162Z,99.90
2017-09-06T11:10:59.173Z,99.90
2017-09-06T11:13:25.205Z,99.90
2017-09-06T11:15:51.260Z,99.20
2017-09-06T11:18:17.271Z,99.10
2017-09-06T11:20:43.309Z,98.90
2017-09-06T11:23:09.350Z,99.30
2017-09-06T11:25:35.407Z,98.70
2017-09-06T11:28:01.513Z,98.50
2017-09-06T11:30:27.549Z,97.80
2017-09-06T11:32:53.608Z,96.80
2017-09-06T11:35:19.650Z,96.50
2017-09-06T11:37:45.688Z,96.80
2017-09-06T11:40:11.756Z,97.50
2017-09-06T11:42:37.811Z,96.10
2017-09-06T11:45:03.842Z,94.50
2017-09-06T11:47:29.897Z,94.40
2017-09-06T11:49:55.945Z,94.00
2017-09-06T11:52:22.014Z,94.70
2017-09-06T11:54:48.077Z,94.90
2017-09-06T11:57:14.115Z,95.30
2017-09-06T11:59:40.161Z,94.90
2017-09-06T12:53:50.649Z,93.00
2017-09-06T12:56:16.666Z,91.60
2017-09-06T12:58:42.681Z,92.30
2017-09-06T13:01:08.691Z,91.80
2017-09-06T13:03:34.708Z,91.50
2017-09-06T13:06:00.738Z,90.90
2017-09-06T13:08:26.765Z,91.80
2017-09-06T13:10:52.823Z,91.80
2017-09-06T13:13:18.867Z,92.20
2017-09-06T13:15:44.901Z,92.00
2017-09-06T13:18:10.929Z,92.90
2017-09-06T13:20:36.934Z,92.20
2017-09-06T13:23:02.982Z,92.60
2017-09-06T13:25:29.141Z,92.40
2017-09-06T13:27:55.174Z,92.40
2017-09-06T13:30:21.197Z,92.10
2017-09-06T13:32:47.213Z,92.30
2017-09-06T13:35:13.246Z,92.60
2017-09-06T13:42:36.387Z,92.50
2017-09-06T13:45:02.453Z,92.30
2017-09-06T13:47:28.479Z,92.40
2017-09-06T13:49:54.512Z,92.20
2017-09-06T13:52:20.534Z,92.60
2017-09-06T13:54:49.621Z,93.10
2017-09-06T13:57:15.652Z,94.00
2017-09-06T13:59:41.694Z,93.80
2017-09-06T14:02:07.705Z,94.10
2017-09-06T14:04:33.719Z,94.70
2017-09-06T14:06:59.746Z,94.80
2017-09-06T14:09:25.761Z,95.00
2017-09-06T14:11:51.774Z,94.80
2017-09-06T14:14:17.782Z,94.90
2017-09-06T14:16:43.819Z,94.40
2017-09-06T14:19:09.958Z,93.90
2017-09-06T14:21:35.999Z,94.90
2017-09-06T14:24:02.029Z,94.30
2017-09-06T14:26:28.033Z,94.80
2017-09-06T14:28:54.029Z,94.90
2017-09-06T14:31:20.053Z,94.40
2017-09-06T14:33:46.105Z,95.00
2017-09-06T14:36:12.126Z,94.60
2017-09-06T14:38:38.143Z,94.30
2017-09-06T14:41:04.166Z,93.40
2017-09-06T14:43:30.188Z,93.60
2017-09-06T14:45:56.218Z,94.30
2017-09-06T14:48:22.237Z,94.20
2017-09-06T14:50:48.252Z,94.00
2017-09-06T14:53:14.270Z,93.70
2017-09-06T14:55:40.311Z,93.70
2017-09-06T14:58:06.350Z,94.00
2017-09-06T15:00:32.354Z,93.60
2017-09-06T15:02:58.366Z,93.10
2017-09-06T15:05:24.406Z,92.80
2017-09-06T15:07:50.421Z,91.70
2017-09-06T15:10:16.450Z,91.30
2017-09-06T15:12:42.462Z,92.20
2017-09-06T15:15:08.845Z,91.70
2017-09-06T15:17:34.894Z,91.60
2017-09-06T15:20:00.946Z,91.70
2017-09-06T15:22:27.046Z,92.40
2017-09-06T15:24:53.109Z,92.70
2017-09-06T15:27:19.253Z,92.90
2017-09-06T15:29:45.357Z,92.10
2017-09-06T15:32:11.362Z,92.40
2017-09-06T15:34:37.409Z,92.70
2017-09-06T15:37:03.681Z,92.60
2017-09-06T15:39:33.343Z,92.60
2017-09-06T15:41:59.473Z,93.10
2017-09-06T15:44:25.521Z,92.50
2017-09-06T15:46:51.529Z,93.00
2017-09-06T15:49:17.569Z,93.20
2017-09-06T15:51:43.589Z,92.60
2017-09-06T15:54:09.590Z,92.40
2017-09-06T15:56:35.638Z,92.60
2017-09-06T15:59:01.665Z,92.70
2017-09-06T16:01:27.696Z,92.90
2017-09-06T16:03:53.728Z,92.80
2017-09-06T16:06:19.764Z,93.30
2017-09-06T16:08:45.791Z,93.00
2017-09-06T16:11:11.801Z,93.00
2017-09-06T16:13:38.689Z,93.20
2017-09-06T16:16:05.458Z,93.30
2017-09-06T16:18:31.661Z,93.30
2017-09-06T16:20:57.740Z,93.70
2017-09-06T16:23:23.805Z,93.20
2017-09-06T16:25:49.857Z,93.40
2017-09-06T16:28:15.925Z,93.60
2017-09-06T16:30:41.954Z,94.10
2017-09-06T16:33:08.003Z,94.30
2017-09-06T16:35:34.049Z,93.80
2017-09-06T16:38:00.089Z,93.90
2017-09-06T16:40:26.127Z,94.30
2017-09-06T16:42:52.162Z,93.90
2017-09-06T16:45:18.193Z,93.90
2017-09-06T16:47:44.270Z,93.20
2017-09-06T16:50:10.362Z,93.30
2017-09-06T16:52:36.393Z,94.20
2017-09-06T16:55:02.437Z,94.40
2017-09-06T16:57:28.490Z,94.20
2017-09-06T16:59:54.561Z,94.20
2017-09-06T17:02:20.644Z,94.40
2017-09-06T17:04:46.739Z,94.50
2017-09-06T17:07:12.786Z,94.50
2017-09-06T17:09:40.705Z,94.40
2017-09-06T17:12:06.800Z,94.40
2017-09-06T17:14:32.900Z,94.80
2017-09-06T17:16:58.949Z,93.70
2017-09-06T17:19:25.002Z,94.30
2017-09-06T17:21:51.113Z,95.00
2017-09-06T17:24:17.268Z,95.00
2017-09-06T17:26:43.295Z,95.00
2017-09-06T17:29:09.362Z,95.50
2017-09-06T17:31:35.384Z,96.00
2017-09-06T17:34:01.401Z,95.70
2017-09-06T17:36:27.413Z,96.20
2017-09-06T17:38:53.543Z,96.00
2017-09-06T17:41:19.618Z,96.20
2017-09-06T17:43:45.826Z,96.20
2017-09-06T17:46:11.911Z,96.20
2017-09-06T17:48:37.950Z,95.60
2017-09-06T17:51:03.998Z,96.10
2017-09-06T17:53:30.038Z,96.20
2017-09-06T17:55:56.087Z,95.80
2017-09-06T17:58:22.149Z,95.60
2017-09-06T18:00:48.186Z,96.00
2017-09-06T18:03:14.254Z,96.80
2017-09-06T18:05:40.278Z,96.60
2017-09-06T18:08:06.324Z,96.60
2017-09-06T18:10:32.439Z,96.10
2017-09-06T18:12:58.516Z,96.70
2017-09-06T18:15:24.577Z,96.40
2017-09-06T18:17:50.615Z,96.60
2017-09-06T18:20:16.650Z,96.10
2017-09-06T18:22:42.711Z,96.30
2017-09-06T18:25:08.749Z,96.00
2017-09-06T18:27:34.814Z,96.20
2017-09-06T18:30:00.858Z,95.40
2017-09-06T18:32:26.894Z,95.50
2017-09-06T18:34:52.949Z,95.70
2017-09-06T18:37:19.009Z,95.80
2017-09-06T18:39:45.125Z,95.80
2017-09-06T18:42:11.161Z,96.00
2017-09-06T18:44:37.211Z,95.60
2017-09-06T18:47:03.280Z,95.70
2017-09-06T18:49:29.310Z,96.10
2017-09-06T18:51:55.389Z,95.80
2017-09-06T18:54:21.449Z,95.70
2017-09-06T18:56:47.516Z,95.80
2017-09-06T18:59:13.585Z,95.50
2017-09-06T19:31:13.644Z,95.00
2017-09-06T19:33:39.722Z,94.80
2017-09-06T19:36:05.746Z,94.90
2017-09-06T19:38:31.851Z,95.00
2017-09-06T19:40:57.910Z,95.10
2017-09-06T19:43:23.934Z,95.10
2017-09-06T19:45:50.016Z,95.10
2017-09-06T19:48:16.048Z,95.20
2017-09-06T19:50:42.179Z,94.80
2017-09-06T19:53:08.231Z,95.00
2017-09-06T19:55:34.279Z,95.10
2017-09-06T19:58:00.547Z,94.90
2017-09-06T20:00:26.635Z,94.50
2017-09-06T20:02:52.705Z,94.70
2017-09-06T20:05:18.866Z,95.00
2017-09-06T20:07:44.981Z,94.90
2017-09-06T20:10:11.044Z,94.90
2017-09-06T20:12:37.095Z,94.80
2017-09-06T20:15:03.147Z,94.90
2017-09-06T20:17:29.182Z,95.00
2017-09-06T20:19:55.240Z,95.10
2017-09-06T20:22:21.312Z,95.00
2017-09-06T20:24:47.366Z,94.90
2017-09-06T20:27:13.806Z,94.70
2017-09-06T20:29:39.846Z,94.60
2017-09-06T20:32:05.941Z,94.70
2017-09-06T20:34:32.132Z,94.70
2017-09-06T20:36:58.196Z,94.20
2017-09-06T20:39:24.275Z,94.40
2017-09-06T20:41:51.093Z,94.40
2017-09-06T20:44:17.158Z,94.30
2017-09-06T20:46:43.189Z,94.60
2017-09-06T20:49:09.249Z,94.30
2017-09-06T20:51:35.313Z,94.40
2017-09-06T20:54:01.370Z,94.60
2017-09-06T20:56:27.414Z,94.30
2017-09-06T20:58:53.470Z,94.50
2017-09-06T21:01:19.523Z,94.00
2017-09-06T21:03:45.614Z,93.90
2017-09-06T21:06:11.668Z,93.90
2017-09-06T21:08:37.692Z,94.10
2017-09-06T21:11:03.752Z,94.00
2017-09-06T21:13:29.787Z,94.10
2017-09-06T21:15:55.838Z,94.00
2017-09-06T21:18:21.884Z,93.80
2017-09-06T21:20:47.966Z,93.80
2017-09-06T21:23:14.014Z,93.90
2017-09-06T21:25:40.053Z,94.10
2017-09-06T21:28:06.106Z,93.90
2017-09-06T21:30:32.583Z,93.70
2017-09-06T21:32:58.738Z,93.90
2017-09-06T21:35:24.835Z,93.90
2017-09-06T21:37:50.920Z,94.40
2017-09-06T21:40:16.985Z,94.20
2017-09-06T21:42:43.285Z,94.10
2017-09-06T21:45:09.415Z,94.40
2017-09-06T21:47:35.500Z,94.30
2017-09-06T21:50:01.629Z,94.30
2017-09-06T21:52:27.705Z,94.40
2017-09-06T21:54:53.744Z,94.80
2017-09-06T21:57:19.799Z,94.50
2017-09-06T21:59:45.830Z,94.60
2017-09-06T22:02:11.896Z,94.70
2017-09-06T22:04:38.170Z,94.70
2017-09-06T22:07:05.012Z,94.80
2017-09-06T22:09:31.607Z,94.70
2017-09-06T22:11:58.529Z,94.80
2017-09-06T22:14:25.167Z,94.80
2017-09-06T22:16:52.289Z,94.80
2017-09-06T22:19:19.188Z,94.70
2017-09-06T22:21:45.922Z,94.80
2017-09-06T22:24:12.987Z,94.70
2017-09-06T22:26:40.070Z,94.90
2017-09-06T22:29:48.754Z,94.00
2017-09-06T22:32:15.918Z,94.20
2017-09-06T22:34:42.951Z,93.90
2017-09-06T22:37:10.020Z,93.90
2017-09-06T22:39:37.189Z,94.00
2017-09-06T22:42:06.433Z,93.30
2017-09-06T22:44:42.260Z,93.20
2017-09-06T22:47:09.952Z,93.20
2017-09-06T22:49:36.017Z,93.50
2017-09-06T22:52:02.798Z,93.50
2017-09-06T22:54:29.174Z,93.50
2017-09-06T22:56:56.297Z,94.20
2017-09-06T22:59:22.406Z,94.00
2017-09-06T23:01:48.485Z,94.20
2017-09-06T23:04:15.656Z,94.30
2017-09-06T23:06:43.657Z,94.60
2017-09-06T23:09:11.492Z,94.80
2017-09-06T23:11:39.333Z,95.10
2017-09-06T23:14:06.369Z,95.10
2017-09-06T23:16:34.139Z,95.40
2017-09-06T23:19:01.431Z,95.60
2017-09-06T23:21:28.513Z,95.90
2017-09-06T23:23:55.826Z,95.70
2017-09-06T23:26:23.559Z,95.80
2017-09-06T23:28:50.734Z,96.00
2017-09-06T23:31:17.825Z,96.10
2017-09-06T23:33:44.479Z,96.20
2017-09-06T23:36:11.711Z,96.20
2017-09-06T23:38:38.719Z,96.30
2017-09-06T23:41:05.640Z,96.30
2017-09-06T23:43:33.140Z,96.20
2017-09-06T23:45:59.421Z,96.20
2017-09-06T23:48:25.465Z,96.30
2017-09-06T23:50:51.517Z,96.40
2017-09-06T23:53:17.545Z,96.40
2017-09-06T23:55:43.591Z,96.40
2017-09-06T23:58:09.676Z,96.40
